Time;durP1;ratioP1;P1;durP2;ratioP2;P2;SDS_P1;SDS_P2;PMS_P1;PMS_P2;Temp;Humidity;BMP_temperature;BMP_pressure;BME280_temperature;BME280_humidity;BME280_pressure;Samples;Min_cycle;Max_cycle;Signal;HPM_P1;HPM_P2
2021/01/31 00:00:41;;;;;;;8.30;7.60;;;;;;;-1.87;78.41;99494.38;4979541;28;20231;-78
2021/01/31 00:03:08;;;;;;;7.47;6.87;;;;;;;-1.98;78.84;99493.34;4979831;28;20608;-78
2021/01/31 00:05:35;;;;;;;8.17;7.37;;;;;;;-1.98;79.36;99491.66;4986753;28;20199;-77
2021/01/31 00:08:01;;;;;;;7.93;7.27;;;;;;;-1.93;79.22;99492.59;4990585;28;20204;-78
2021/01/31 00:10:28;;;;;;;7.70;7.07;;;;;;;-2.03;79.78;99495.84;4988235;28;20237;-77
2021/01/31 00:12:56;;;;;;;7.93;7.13;;;;;;;-2.03;78.84;99491.56;4988969;28;20202;-77
2021/01/31 00:15:25;;;;;;;8.07;7.33;;;;;;;-2.16;79.21;99499.00;4989179;28;20227;-78
2021/01/31 00:17:51;;;;;;;7.97;7.27;;;;;;;-2.19;79.50;99499.81;4988036;28;20214;-79
2021/01/31 00:20:18;;;;;;;7.90;7.20;;;;;;;-2.16;79.37;99501.56;4983755;28;20235;-78
2021/01/31 00:22:44;;;;;;;8.50;7.70;;;;;;;-2.18;79.44;99500.69;4976955;28;20692;-79
2021/01/31 00:25:11;;;;;;;8.20;7.40;;;;;;;-2.16;79.77;99509.22;4977028;28;20243;-78
2021/01/31 00:27:37;;;;;;;8.63;7.73;;;;;;;-2.14;79.08;99516.13;4977111;28;20208;-78
2021/01/31 00:30:10;;;;;;;8.50;7.70;;;;;;;-2.20;79.10;99518.53;4980286;28;20234;-77
2021/01/31 00:32:36;;;;;;;8.67;7.87;;;;;;;-2.32;79.64;99511.53;4977429;28;20593;-79
2021/01/31 00:35:02;;;;;;;8.00;7.30;;;;;;;-2.34;79.61;99509.78;4976378;28;20238;-78
2021/01/31 00:37:28;;;;;;;8.27;7.50;;;;;;;-2.37;79.56;99507.19;4977505;28;20222;-78
2021/01/31 00:39:53;;;;;;;8.93;8.03;;;;;;;-2.45;79.99;99507.88;4976558;28;20230;-77
2021/01/31 00:42:21;;;;;;;9.07;8.27;;;;;;;-2.70;80.96;99511.66;4977244;28;20199;-77
2021/01/31 00:44:49;;;;;;;9.27;8.37;;;;;;;-2.71;80.66;99512.50;4976292;28;20331;-78
2021/01/31 00:47:16;;;;;;;9.33;8.40;;;;;;;-2.79;80.71;99519.16;4977006;28;20338;-78
2021/01/31 00:49:43;;;;;;;9.30;8.40;;;;;;;-2.64;80.43;99523.69;4975834;28;20619;-78
2021/01/31 00:52:10;;;;;;;9.10;8.17;;;;;;;-2.56;79.98;99519.59;4976897;28;20217;-78
2021/01/31 00:54:36;;;;;;;8.63;7.77;;;;;;;-2.52;79.53;99525.63;4976947;28;20219;-78
2021/01/31 00:57:01;;;;;;;8.63;7.73;;;;;;;-2.56;79.53;99529.81;4982105;28;20749;-77
2021/01/31 00:59:27;;;;;;;9.33;8.13;;;;;;;-2.68;80.11;99530.44;4975622;28;20227;-78
2021/01/31 01:01:53;;;;;;;9.30;8.40;;;;;;;-2.83;79.33;99528.47;4975164;28;20274;-78
2021/01/31 01:04:20;;;;;;;8.70;7.90;;;;;;;-2.88;78.97;99532.59;4974231;28;20622;-78
2021/01/31 01:06:46;;;;;;;7.73;7.03;;;;;;;-2.81;79.19;99533.59;4981723;28;20226;-78
2021/01/31 01:09:12;;;;;;;8.70;7.83;;;;;;;-2.89;79.22;99532.59;4975008;28;20701;-78
2021/01/31 01:11:38;;;;;;;8.03;7.33;;;;;;;-2.89;79.29;99527.47;4974696;28;20583;-78
2021/01/31 01:14:04;;;;;;;8.77;7.90;;;;;;;-2.94;79.45;99539.28;4974983;28;20209;-77
2021/01/31 01:16:30;;;;;;;8.87;8.17;;;;;;;-2.97;80.60;99539.19;4975069;28;20293;-78
2021/01/31 01:18:56;;;;;;;9.30;8.37;;;;;;;-3.01;80.44;99541.72;4975124;28;20234;-78
2021/01/31 01:21:23;;;;;;;8.80;8.00;;;;;;;-2.98;79.57;99540.03;4975338;28;20211;-78
2021/01/31 01:23:49;;;;;;;8.53;7.73;;;;;;;-3.04;79.16;99541.63;4974934;28;20266;-76
2021/01/31 01:26:15;;;;;;;7.37;6.73;;;;;;;-3.07;79.38;99536.47;4974592;28;20231;-78
2021/01/31 01:28:41;;;;;;;9.40;8.60;;;;;;;-2.98;79.96;99533.25;4977010;28;20207;-78
2021/01/31 01:31:06;;;;;;;9.57;8.07;;;;;;;-3.03;79.50;99533.16;4977819;28;20238;-78
2021/01/31 01:33:33;;;;;;;8.73;7.80;;;;;;;-3.03;79.94;99528.06;4974922;28;20199;-78
2021/01/31 01:35:59;;;;;;;10.07;9.07;;;;;;;-2.96;80.13;99528.19;4977956;28;20226;-78
2021/01/31 01:38:26;;;;;;;9.83;8.83;;;;;;;-2.92;79.39;99525.72;4974616;28;20271;-78
2021/01/31 01:40:54;;;;;;;9.13;8.23;;;;;;;-3.01;79.19;99525.53;4975000;28;20231;-78
2021/01/31 01:43:21;;;;;;;9.47;8.57;;;;;;;-3.15;79.16;99525.25;4975759;28;20281;-78
2021/01/31 01:46:07;;;;;;;10.13;8.43;;;;;;;-3.17;80.30;99523.47;4973999;28;20664;-78
2021/01/31 01:48:34;;;;;;;9.27;8.27;;;;;;;-3.24;80.41;99523.34;4977918;28;20226;-78
2021/01/31 01:51:00;;;;;;;9.00;8.20;;;;;;;-3.15;80.52;99525.25;4975243;28;20253;-77
2021/01/31 01:53:27;;;;;;;10.27;9.27;;;;;;;-3.17;80.41;99519.25;4978246;28;20207;-76
2021/01/31 01:55:58;;;;;;;8.57;7.73;;;;;;;-3.16;80.24;99520.09;4982714;28;20701;-78
2021/01/31 01:58:24;;;;;;;9.67;8.70;;;;;;;-3.23;80.35;99522.53;4978233;28;20209;-78
2021/01/31 02:00:50;;;;;;;8.83;7.93;;;;;;;-3.22;80.58;99528.47;4980429;28;20230;-78
2021/01/31 02:03:20;;;;;;;9.73;8.83;;;;;;;-3.24;80.60;99531.00;4978404;28;20206;-78
2021/01/31 02:05:52;;;;;;;10.10;9.00;;;;;;;-3.15;80.59;99524.34;4983871;28;20635;-78
2021/01/31 02:08:18;;;;;;;9.10;7.47;;;;;;;-3.10;80.49;99531.28;4973030;28;20211;-78
2021/01/31 02:10:45;;;;;;;8.53;7.73;;;;;;;-3.16;80.05;99526.06;4979620;28;20574;-77
2021/01/31 02:13:11;;;;;;;9.40;8.50;;;;;;;-3.16;80.20;99530.31;4977874;28;20215;-78
2021/01/31 02:15:37;;;;;;;8.47;7.67;;;;;;;-3.17;80.31;99526.03;4977945;28;20234;-75
2021/01/31 02:18:11;;;;;;;8.77;7.90;;;;;;;-3.22;80.74;99529.34;4978702;28;20238;-77
2021/01/31 02:21:13;;;;;;;7.97;7.23;;;;;;;-3.14;81.08;99528.66;4980615;28;20838;-78
2021/01/31 02:24:22;;;;;;;7.73;7.03;;;;;;;-3.11;80.69;99524.47;4972452;28;20699;-76
2021/01/31 02:27:07;;;;;;;9.07;7.50;;;;;;;-3.01;80.11;99533.19;4977131;28;20219;-78
2021/01/31 02:30:12;;;;;;;9.13;7.63;;;;;;;-2.95;80.36;99532.44;4979798;28;20231;-78
2021/01/31 02:33:10;;;;;;;8.47;7.53;;;;;;;-2.95;80.24;99532.44;4929119;28;20207;-78
2021/01/31 02:35:38;;;;;;;8.40;7.60;;;;;;;-2.94;79.97;99536.72;4971331;28;20215;-78
2021/01/31 02:38:11;;;;;;;8.43;7.67;;;;;;;-2.94;80.05;99534.16;4979473;28;20205;-77
2021/01/31 02:40:46;;;;;;;7.60;6.83;;;;;;;-3.07;79.23;99533.03;4983860;28;20243;-77
2021/01/31 02:43:17;;;;;;;7.77;6.97;;;;;;;-3.10;79.36;99533.84;4976569;28;20577;-77
2021/01/31 02:45:48;;;;;;;7.93;7.13;;;;;;;-3.03;79.58;99537.41;4976433;28;20668;-77
2021/01/31 02:48:19;;;;;;;8.37;7.57;;;;;;;-3.04;79.82;99538.22;4977505;28;20821;-78
2021/01/31 02:50:53;;;;;;;8.87;7.27;;;;;;;-3.00;79.63;99534.91;4976944;28;20227;-77
2021/01/31 02:53:23;;;;;;;8.17;7.37;;;;;;;-3.03;79.39;99533.16;4977007;28;20218;-77
2021/01/31 02:55:55;;;;;;;9.57;8.30;;;;;;;-3.12;80.04;99520.19;4976491;28;20277;-78
2021/01/31 02:58:23;;;;;;;8.20;7.40;;;;;;;-3.14;79.92;99521.00;4977392;28;20292;-77
2021/01/31 03:00:55;;;;;;;8.27;7.47;;;;;;;-3.14;80.56;99515.88;4976700;28;20230;-77
2021/01/31 03:03:28;;;;;;;7.90;7.20;;;;;;;-3.15;80.01;99512.47;4984216;28;20652;-78
2021/01/31 03:05:58;;;;;;;8.57;7.67;;;;;;;-3.21;79.76;99507.22;4984275;28;20217;-77
2021/01/31 03:08:27;;;;;;;8.97;8.07;;;;;;;-3.17;79.40;99510.72;4991412;28;20197;-77
2021/01/31 03:10:58;;;;;;;8.80;7.90;;;;;;;-3.10;79.71;99513.41;4976365;28;20666;-77
2021/01/31 03:13:30;;;;;;;8.73;7.93;;;;;;;-3.18;80.40;99519.22;4976798;28;20210;-77
2021/01/31 03:16:03;;;;;;;8.67;7.87;;;;;;;-3.16;79.99;99518.41;4975586;28;20237;-77
2021/01/31 03:18:37;;;;;;;7.93;7.13;;;;;;;-3.18;79.62;99524.31;4982661;28;20203;-78
2021/01/31 03:21:07;;;;;;;8.63;7.73;;;;;;;-3.22;80.01;99528.47;4975845;28;20249;-77
2021/01/31 03:23:38;;;;;;;7.57;6.80;;;;;;;-3.27;79.88;99528.41;4976830;28;20207;-78
2021/01/31 03:26:12;;;;;;;8.93;7.77;;;;;;;-3.21;79.97;99542.94;4976305;28;20252;-77
2021/01/31 03:28:39;;;;;;;8.00;7.20;;;;;;;-3.29;79.66;99530.06;4981561;28;20622;-77
2021/01/31 03:31:07;;;;;;;8.80;7.90;;;;;;;-3.36;79.45;99540.94;4975517;28;20716;-77
2021/01/31 03:33:38;;;;;;;7.90;7.10;;;;;;;-3.40;79.45;99528.94;4975856;28;20206;-78
2021/01/31 03:36:05;;;;;;;8.30;7.50;;;;;;;-3.42;79.56;99528.03;4975279;28;20235;-77
2021/01/31 03:38:37;;;;;;;8.90;7.40;;;;;;;-3.41;78.92;99522.09;4976022;28;20206;-77
2021/01/31 03:41:06;;;;;;;7.73;6.93;;;;;;;-3.48;79.28;99525.34;4976611;28;20231;-77
2021/01/31 03:43:32;;;;;;;8.00;7.30;;;;;;;-3.45;78.86;99523.75;4976233;28;20229;-78
2021/01/31 03:46:06;;;;;;;8.33;7.53;;;;;;;-3.45;79.65;99528.84;4981769;28;20213;-77
2021/01/31 03:48:38;;;;;;;8.53;7.10;;;;;;;-3.50;80.26;99524.47;4970507;28;20237;-77
2021/01/31 03:51:05;;;;;;;8.30;7.40;;;;;;;-3.51;79.19;99532.94;4981879;28;20235;-77
2021/01/31 03:53:31;;;;;;;8.33;7.50;;;;;;;-3.54;79.15;99532.88;4978910;28;20211;-77
2021/01/31 03:55:58;;;;;;;7.83;6.93;;;;;;;-3.54;79.85;99527.78;4977712;28;20241;-76
2021/01/31 03:58:26;;;;;;;7.93;7.13;;;;;;;-3.49;79.56;99529.59;4975795;28;20218;-77
2021/01/31 04:00:56;;;;;;;7.10;6.40;;;;;;;-3.51;79.57;99535.47;4981022;28;20230;-77
2021/01/31 04:03:27;;;;;;;7.87;6.90;;;;;;;-3.67;79.56;99524.91;4977704;28;20205;-78
2021/01/31 04:05:56;;;;;;;7.97;7.17;;;;;;;-3.68;79.02;99530.00;4980563;28;20210;-77
2021/01/31 04:08:23;;;;;;;10.13;7.70;;;;;;;-3.72;79.20;99530.75;4975435;28;20210;-77
2021/01/31 04:10:50;;;;;;;9.10;8.17;;;;;;;-3.71;79.65;99528.22;4974387;28;20237;-77
2021/01/31 04:13:19;;;;;;;8.73;7.83;;;;;;;-3.76;79.81;99527.28;4974290;28;20216;-76
2021/01/31 04:15:47;;;;;;;7.97;7.17;;;;;;;-3.74;80.53;99529.88;4974137;28;20670;-77
2021/01/31 04:18:15;;;;;;;8.37;7.57;;;;;;;-3.75;80.50;99533.22;4975401;28;20211;-77
2021/01/31 04:20:42;;;;;;;9.10;8.20;;;;;;;-3.70;80.66;99532.50;4975128;28;20791;-77
2021/01/31 04:23:08;;;;;;;8.10;7.30;;;;;;;-3.74;80.89;99533.25;4974972;28;20216;-77
2021/01/31 04:25:35;;;;;;;8.87;6.70;;;;;;;-3.81;80.42;99534.78;4979273;28;20210;-78
2021/01/31 04:28:09;;;;;;;8.03;7.23;;;;;;;-3.77;81.08;99534.88;4975722;28;20578;-77
2021/01/31 04:30:35;;;;;;;7.80;7.00;;;;;;;-3.82;81.26;99540.72;4974429;28;20313;-76
2021/01/31 04:33:00;;;;;;;9.17;8.27;;;;;;;-3.81;80.54;99533.94;4975303;28;20203;-76
2021/01/31 04:35:26;;;;;;;8.93;7.53;;;;;;;-3.75;80.95;99533.22;4978278;28;20302;-76
2021/01/31 04:37:52;;;;;;;8.40;7.47;;;;;;;-3.77;80.74;99535.72;4974539;28;20223;-77
2021/01/31 04:40:19;;;;;;;8.63;7.70;;;;;;;-3.74;81.19;99529.88;4977991;28;20265;-77
2021/01/31 04:42:46;;;;;;;7.77;6.97;;;;;;;-3.76;80.76;99534.06;4978069;28;20685;-77
2021/01/31 04:45:13;;;;;;;8.27;7.47;;;;;;;-3.76;80.93;99534.91;4974344;28;20651;-77
2021/01/31 04:47:45;;;;;;;7.70;6.90;;;;;;;-3.81;80.72;99536.47;4974857;28;20207;-77
2021/01/31 04:50:18;;;;;;;8.27;7.30;;;;;;;-3.77;80.99;99534.88;4979307;28;20882;-77
2021/01/31 04:52:59;;;;;;;7.43;6.63;;;;;;;-3.81;80.56;99532.25;4974855;28;20211;-77
2021/01/31 04:55:38;;;;;;;7.40;6.70;;;;;;;-3.80;80.92;99531.44;4970685;28;20256;-78
2021/01/31 04:58:11;;;;;;;9.97;6.40;;;;;;;-3.77;80.59;99535.72;4973578;28;20203;-78
2021/01/31 05:00:44;;;;;;;8.30;6.57;;;;;;;-3.89;80.30;99530.34;4978566;28;20719;-77
2021/01/31 05:03:12;;;;;;;7.77;6.70;;;;;;;-3.90;79.68;99536.28;4974819;28;20282;-77
2021/01/31 05:05:44;;;;;;;7.93;6.77;;;;;;;-3.91;80.82;99540.50;4976746;28;20209;-77
2021/01/31 05:08:19;;;;;;;7.07;6.37;;;;;;;-3.82;81.19;99537.31;4974136;28;20636;-76
2021/01/31 05:10:46;;;;;;;6.67;6.07;;;;;;;-3.81;80.83;99539.03;4974226;28;20623;-77
2021/01/31 05:13:26;;;;;;;6.33;5.73;;;;;;;-3.85;80.62;99538.09;4974807;28;20257;-76
2021/01/31 05:15:59;;;;;;;6.97;6.27;;;;;;;-3.88;80.20;99538.03;4973714;28;20242;-76
2021/01/31 05:18:26;;;;;;;6.90;6.17;;;;;;;-3.89;80.34;99546.50;4980074;28;20204;-76
2021/01/31 05:20:58;;;;;;;8.47;7.27;;;;;;;-3.91;80.32;99543.03;4977981;28;20234;-77
2021/01/31 05:23:24;;;;;;;6.73;6.13;;;;;;;-3.95;80.64;99542.94;4974151;28;20211;-77
2021/01/31 05:25:50;;;;;;;6.50;5.90;;;;;;;-3.95;80.32;99536.16;4976825;28;20268;-77
2021/01/31 05:28:21;;;;;;;6.80;6.10;;;;;;;-4.01;80.74;99541.94;4978063;28;20235;-77
2021/01/31 05:30:47;;;;;;;7.80;6.73;;;;;;;-4.06;80.69;99540.13;4982509;28;20237;-76
2021/01/31 05:33:15;;;;;;;7.70;6.80;;;;;;;-4.01;80.91;99541.94;4978383;28;20708;-77
2021/01/31 05:35:45;;;;;;;6.93;6.23;;;;;;;-4.02;80.77;99542.78;4978588;28;20256;-77
2021/01/31 05:38:11;;;;;;;6.13;5.53;;;;;;;-4.04;80.91;99536.78;4977482;28;20251;-77
2021/01/31 05:40:40;;;;;;;7.07;6.37;;;;;;;-4.02;80.98;99535.16;4978629;28;20276;-76
2021/01/31 05:43:14;;;;;;;8.50;6.90;;;;;;;-4.04;80.70;99535.94;4983381;28;20210;-77
2021/01/31 05:45:44;;;;;;;6.87;6.17;;;;;;;-4.00;80.32;99533.50;4976525;28;20213;-77
2021/01/31 05:48:25;;;;;;;7.43;6.43;;;;;;;-4.03;80.76;99532.53;4976277;28;20280;-77
2021/01/31 05:50:52;;;;;;;7.87;7.07;;;;;;;-4.05;80.53;99534.19;4975976;28;20637;-77
2021/01/31 05:53:31;;;;;;;7.07;6.37;;;;;;;-4.09;79.74;99529.84;4970792;28;20206;-77
2021/01/31 05:56:22;;;;;;;7.53;6.70;;;;;;;-4.12;81.06;99539.94;4977606;28;20216;-77
2021/01/31 05:58:49;;;;;;;8.17;6.97;;;;;;;-4.09;80.99;99537.50;4976652;28;20245;-77
2021/01/31 06:01:16;;;;;;;7.97;7.13;;;;;;;-4.14;80.67;99539.94;4976155;28;20738;-77
2021/01/31 06:03:42;;;;;;;7.40;6.60;;;;;;;-4.07;80.27;99540.94;4976704;28;20732;-76
2021/01/31 06:06:11;;;;;;;7.33;6.70;;;;;;;-4.14;80.29;99539.06;4976116;28;20215;-77
2021/01/31 06:08:41;;;;;;;7.67;6.70;;;;;;;-4.13;80.91;99535.69;4976849;28;20207;-77
2021/01/31 06:11:11;;;;;;;7.60;6.80;;;;;;;-4.13;80.81;99536.56;4976816;28;20227;-77
2021/01/31 06:13:38;;;;;;;8.47;7.43;;;;;;;-4.17;80.77;99544.94;4976448;28;20208;-77
2021/01/31 06:16:07;;;;;;;7.77;6.97;;;;;;;-4.22;81.05;99544.84;4976553;28;20238;-77
2021/01/31 06:18:42;;;;;;;7.03;6.43;;;;;;;-4.20;80.27;99547.44;4981852;28;20206;-77
2021/01/31 06:21:10;;;;;;;7.80;7.10;;;;;;;-4.20;80.03;99555.06;4985678;28;20241;-77
2021/01/31 06:23:40;;;;;;;8.20;7.30;;;;;;;-4.23;80.50;99560.94;4991464;28;20209;-77
2021/01/31 06:26:06;;;;;;;7.73;6.97;;;;;;;-4.21;80.29;99553.34;4978588;28;20215;-77
2021/01/31 06:28:43;;;;;;;6.90;6.23;;;;;;;-4.18;79.88;99548.31;4975761;28;20206;-77
2021/01/31 06:31:19;;;;;;;8.03;7.23;;;;;;;-4.27;79.99;99543.84;4975102;28;20289;-77
2021/01/31 06:33:46;;;;;;;6.93;6.23;;;;;;;-4.26;79.21;99552.34;4983272;28;20210;-77
2021/01/31 06:36:22;;;;;;;6.60;6.00;;;;;;;-4.30;79.87;99547.97;4974570;28;20245;-76
2021/01/31 06:38:59;;;;;;;7.20;6.50;;;;;;;-4.35;80.22;99547.03;4976905;28;20206;-77
2021/01/31 06:41:43;;;;;;;7.50;6.70;;;;;;;-4.32;79.89;99542.88;4981396;28;20206;-77
2021/01/31 06:44:19;;;;;;;6.80;6.20;;;;;;;-4.33;79.55;99537.72;4975310;28;20855;-77
2021/01/31 06:46:53;;;;;;;6.87;6.17;;;;;;;-4.32;80.19;99539.44;4971456;28;20548;-77
2021/01/31 06:49:34;;;;;;;7.77;7.03;;;;;;;-4.36;80.15;99540.19;4974323;28;20230;-77
2021/01/31 06:52:12;;;;;;;6.80;6.20;;;;;;;-4.34;80.24;99549.63;4979550;28;20228;-75
2021/01/31 06:54:54;;;;;;;7.23;6.53;;;;;;;-4.34;79.84;99556.38;4980159;28;20221;-75
2021/01/31 06:57:37;;;;;;;6.10;5.57;;;;;;;-4.31;79.70;99554.78;4980454;28;20221;-77
2021/01/31 07:00:16;;;;;;;5.93;5.43;;;;;;;-4.32;79.65;99558.16;4974269;28;20584;-77
2021/01/31 07:03:04;;;;;;;5.97;5.47;;;;;;;-4.32;80.33;99558.16;4970725;28;20682;-77
2021/01/31 07:05:58;;;;;;;6.13;5.50;;;;;;;-4.36;80.25;99555.47;4967164;28;20643;-77
2021/01/31 07:08:45;;;;;;;6.43;5.80;;;;;;;-4.33;80.18;99565.75;4974785;28;20206;-77
2021/01/31 07:11:26;;;;;;;5.87;5.27;;;;;;;-4.35;80.03;99570.81;4974843;28;20227;-76
2021/01/31 07:13:58;;;;;;;6.27;5.67;;;;;;;-4.37;81.01;99567.34;4974994;28;20670;-77
2021/01/31 07:16:41;;;;;;;6.03;5.53;;;;;;;-4.40;80.35;99559.63;4974118;28;20234;-77
2021/01/31 07:19:14;;;;;;;5.90;5.40;;;;;;;-4.40;79.52;99557.06;4973894;28;20225;-76
2021/01/31 07:21:49;;;;;;;6.43;5.83;;;;;;;-4.32;79.74;99553.06;4974990;28;20199;-77
2021/01/31 07:24:21;;;;;;;6.00;5.27;;;;;;;-4.40;79.66;99560.50;4981646;28;20240;-77
2021/01/31 07:26:51;;;;;;;5.57;5.07;;;;;;;-4.27;78.83;99555.72;4987627;28;20210;-76
2021/01/31 07:29:24;;;;;;;5.83;5.23;;;;;;;-4.22;78.47;99559.25;4981964;28;20222;-77
2021/01/31 07:31:51;;;;;;;5.23;4.73;;;;;;;-4.22;78.10;99557.56;4988111;28;20206;-77
2021/01/31 07:34:25;;;;;;;6.60;6.00;;;;;;;-4.33;78.41;99558.97;4985482;28;20663;-77
2021/01/31 07:37:06;;;;;;;6.17;5.57;;;;;;;-4.45;78.91;99567.13;4986362;28;20233;-76
2021/01/31 07:39:40;;;;;;;7.37;5.87;;;;;;;-4.48;78.26;99561.97;4982114;28;20231;-76
2021/01/31 07:42:06;;;;;;;6.03;5.50;;;;;;;-4.45;78.59;99562.03;4983683;28;20202;-76
2021/01/31 07:44:35;;;;;;;6.33;5.73;;;;;;;-4.47;78.25;99566.22;4983423;28;20212;-76
2021/01/31 07:47:01;;;;;;;6.47;5.40;;;;;;;-4.47;78.26;99566.22;4982930;28;20206;-76
2021/01/31 07:50:02;;;;;;;5.50;5.00;;;;;;;-4.46;78.27;99564.53;4978168;28;20236;-76
2021/01/31 07:52:43;;;;;;;6.73;5.17;;;;;;;-4.49;78.70;99559.38;4968668;28;20251;-76
2021/01/31 07:55:15;;;;;;;6.13;5.53;;;;;;;-4.51;79.08;99569.53;4978456;28;20205;-77
2021/01/31 07:57:42;;;;;;;5.77;5.27;;;;;;;-4.49;79.02;99569.56;4982871;28;20225;-77
2021/01/31 08:00:14;;;;;;;7.07;5.27;;;;;;;-4.40;78.95;99572.34;4978877;28;20610;-76
2021/01/31 08:02:42;;;;;;;6.60;6.00;;;;;;;-4.40;78.79;99570.69;4982428;28;20209;-77
2021/01/31 08:05:13;;;;;;;5.83;5.27;;;;;;;-4.44;79.12;99573.09;4978756;28;20217;-77
2021/01/31 08:08:03;;;;;;;5.67;5.10;;;;;;;-4.52;78.83;99570.34;4986024;28;20204;-77
2021/01/31 08:10:49;;;;;;;5.67;5.07;;;;;;;-4.53;79.61;99571.16;4980554;28;20229;-76
2021/01/31 08:13:38;;;;;;;6.63;5.70;;;;;;;-4.64;81.04;99577.63;4981991;28;20199;-77
2021/01/31 08:16:39;;;;;;;6.60;5.97;;;;;;;-4.60;80.96;99574.34;4980967;28;20211;-77
2021/01/31 08:19:10;;;;;;;7.10;6.40;;;;;;;-4.50;80.31;99573.81;4983529;28;20204;-77
2021/01/31 08:21:54;;;;;;;7.17;6.47;;;;;;;-4.45;80.39;99574.78;4984160;28;20218;-76
2021/01/31 08:24:53;;;;;;;7.47;6.67;;;;;;;-4.35;81.31;99586.09;4982265;28;20254;-76
2021/01/31 08:28:00;;;;;;;7.40;6.67;;;;;;;-4.31;82.25;99579.41;4985650;28;20218;-78
2021/01/31 08:30:30;;;;;;;7.43;6.67;;;;;;;-4.22;81.96;99575.41;4957969;28;20230;-77
2021/01/31 08:33:27;;;;;;;7.97;7.20;;;;;;;-4.25;82.24;99577.00;4984105;28;20265;-77
2021/01/31 08:35:59;;;;;;;7.23;6.53;;;;;;;-4.14;82.55;99578.16;4981114;28;20265;-77
2021/01/31 08:38:35;;;;;;;7.97;6.87;;;;;;;-4.21;81.85;99573.72;4983715;28;20600;-76
2021/01/31 08:41:29;;;;;;;9.63;8.70;;;;;;;-4.11;82.56;99572.28;4980287;28;20218;-77
2021/01/31 08:43:59;;;;;;;8.77;7.37;;;;;;;-4.01;82.67;99564.03;4984788;28;20232;-79
2021/01/31 08:46:28;;;;;;;11.93;10.23;;;;;;;-3.68;87.21;99574.22;4983835;28;20206;-78
2021/01/31 08:48:56;;;;;;;14.03;10.57;;;;;;;-3.50;88.12;99575.47;4985120;28;20202;-78
2021/01/31 08:51:24;;;;;;;11.80;10.60;;;;;;;-3.22;89.50;99559.09;4982672;28;20212;-79
2021/01/31 08:54:07;;;;;;;10.20;9.20;;;;;;;-3.38;86.68;99560.44;4982365;28;20765;-79
2021/01/31 08:56:37;;;;;;;12.77;11.50;;;;;;;-4.22;84.39;99565.22;4984662;28;20230;-77
2021/01/31 08:59:06;;;;;;;13.80;12.33;;;;;;;-4.10;87.76;99569.78;4987598;28;20576;-79
2021/01/31 09:01:38;;;;;;;14.10;12.70;;;;;;;-4.13;87.48;99571.38;4982958;28;20209;-79
2021/01/31 09:04:08;;;;;;;12.13;10.93;;;;;;;-4.34;85.18;99571.66;4986621;28;20236;-78
2021/01/31 09:06:36;;;;;;;11.33;10.07;;;;;;;-4.57;85.31;99577.00;4982527;28;20219;-79
2021/01/31 09:09:04;;;;;;;11.90;10.70;;;;;;;-4.73;85.82;99562.13;4984798;28;20897;-78
2021/01/31 09:11:30;;;;;;;11.53;10.30;;;;;;;-4.81;86.98;99570.38;4981477;28;20202;-80
2021/01/31 09:14:12;;;;;;;14.47;12.43;;;;;;;-4.52;88.26;99557.63;4985769;28;20231;-80
2021/01/31 09:16:37;;;;;;;13.43;12.13;;;;;;;-4.25;88.62;99559.16;4986673;28;20229;-79
2021/01/31 09:19:06;;;;;;;12.20;10.17;;;;;;;-4.15;87.93;99556.03;4988536;28;20276;-78
2021/01/31 09:21:34;;;;;;;10.93;9.83;;;;;;;-3.96;87.59;99562.47;4975472;28;20206;-76
2021/01/31 09:24:03;;;;;;;10.23;8.87;;;;;;;-3.92;85.76;99558.31;4973124;28;20202;-76
2021/01/31 09:26:29;;;;;;;9.97;9.07;;;;;;;-3.81;85.96;99557.72;4978067;28;20208;-76
2021/01/31 09:28:57;;;;;;;10.77;9.77;;;;;;;-3.67;85.27;99562.31;4982497;28;20205;-76
2021/01/31 09:31:27;;;;;;;12.60;11.27;;;;;;;-3.62;84.44;99563.28;4980334;28;20682;-77
2021/01/31 09:33:58;;;;;;;10.33;9.33;;;;;;;-3.66;83.60;99564.06;4979760;28;20737;-77
2021/01/31 09:36:27;;;;;;;10.30;9.20;;;;;;;-3.67;83.87;99559.75;4972762;28;20279;-77
2021/01/31 09:38:55;;;;;;;10.07;9.07;;;;;;;-3.48;83.71;99563.63;4972012;28;20209;-76
2021/01/31 09:41:23;;;;;;;10.00;9.10;;;;;;;-3.38;83.18;99565.56;4971679;28;20257;-77
2021/01/31 09:43:52;;;;;;;14.10;12.90;;;;;;;-3.30;83.29;99558.94;4981177;28;20955;-78
2021/01/31 09:46:21;;;;;;;18.63;16.93;;;;;;;-3.25;83.42;99575.22;4982781;28;20440;-77
2021/01/31 09:48:50;;;;;;;12.17;10.97;;;;;;;-3.11;83.59;99579.75;4982614;28;20205;-77
2021/01/31 09:51:23;;;;;;;10.60;9.43;;;;;;;-2.98;82.86;99570.69;4977295;28;20229;-77
2021/01/31 09:53:49;;;;;;;10.60;9.50;;;;;;;-3.04;82.53;99576.50;4977383;28;20207;-76
2021/01/31 09:56:35;;;;;;;11.73;10.20;;;;;;;-3.12;82.90;99575.50;4973634;28;20673;-77
2021/01/31 09:59:01;;;;;;;17.20;15.50;;;;;;;-3.09;82.93;99578.09;4979876;28;20200;-77
2021/01/31 10:01:30;;;;;;;502.10;370.87;;;;;;;-3.08;83.71;99582.38;4978753;28;20209;-76
2021/01/31 10:03:59;;;;;;;19.27;17.57;;;;;;;-3.23;82.10;99581.22;4979918;28;20204;-76
2021/01/31 10:06:29;;;;;;;12.00;10.90;;;;;;;-3.22;82.46;99576.97;4980259;28;20198;-77
2021/01/31 10:08:58;;;;;;;10.50;9.53;;;;;;;-3.13;82.44;99572.09;4979810;28;20261;-76
2021/01/31 10:11:26;;;;;;;10.67;9.67;;;;;;;-3.09;82.12;99578.09;4980085;28;20205;-77
2021/01/31 10:13:52;;;;;;;18.73;16.93;;;;;;;-3.22;82.50;99579.53;4983853;28;20202;-77
2021/01/31 10:16:21;;;;;;;12.73;11.57;;;;;;;-3.01;83.50;99576.59;4983157;28;20202;-76
2021/01/31 10:18:47;;;;;;;12.30;11.13;;;;;;;-2.86;83.13;99582.00;4983440;28;20197;-76
2021/01/31 10:21:17;;;;;;;10.67;9.67;;;;;;;-2.77;82.98;99581.34;4983620;28;20235;-76
2021/01/31 10:23:44;;;;;;;10.20;9.30;;;;;;;-2.64;82.73;99575.63;4983169;28;20289;-76
2021/01/31 10:26:14;;;;;;;11.13;10.13;;;;;;;-2.56;82.13;99583.47;4982188;28;20215;-77
2021/01/31 10:28:47;;;;;;;9.43;8.37;;;;;;;-2.49;81.06;99576.81;4983730;28;20207;-77
2021/01/31 10:31:28;;;;;;;10.00;9.10;;;;;;;-2.41;81.10;99571.00;4981392;28;20235;-77
2021/01/31 10:33:55;;;;;;;11.30;10.27;;;;;;;-2.25;82.48;99567.03;4978416;28;20695;-79
2021/01/31 10:36:34;;;;;;;10.77;9.77;;;;;;;-2.21;81.87;99578.19;4976337;28;20604;-78
2021/01/31 10:39:03;;;;;;;9.20;8.40;;;;;;;-2.28;81.29;99571.22;4976092;28;20210;-77
2021/01/31 10:41:29;;;;;;;10.00;9.17;;;;;;;-2.26;81.41;99574.66;4975739;28;20257;-77
2021/01/31 10:44:01;;;;;;;10.23;9.33;;;;;;;-2.20;81.28;99560.31;4990738;28;20204;-77
2021/01/31 10:46:29;;;;;;;10.40;9.50;;;;;;;-2.12;80.25;99568.13;4979582;28;20210;-77
2021/01/31 10:48:55;;;;;;;11.37;9.80;;;;;;;-2.10;79.88;99563.91;4976825;28;20204;-77
2021/01/31 10:51:21;;;;;;;9.60;8.70;;;;;;;-2.08;80.12;99556.25;4977283;28;20272;-77
2021/01/31 10:53:48;;;;;;;10.50;9.50;;;;;;;-1.75;86.22;99557.66;4976527;28;20215;-78
2021/01/31 10:56:14;;;;;;;10.83;9.83;;;;;;;-1.76;84.70;99555.94;4975796;28;20200;-77
2021/01/31 10:58:40;;;;;;;9.90;8.90;;;;;;;-1.72;83.56;99558.59;4975379;28;20226;-77
2021/01/31 11:01:06;;;;;;;10.60;9.63;;;;;;;-1.78;80.83;99558.50;4975856;28;20231;-76
2021/01/31 11:03:32;;;;;;;9.73;8.93;;;;;;;-1.71;82.50;99554.31;4975103;28;20261;-76
2021/01/31 11:05:58;;;;;;;11.95;11.05;;;;;;;-1.64;81.91;99546.78;4973812;28;20442;-77
2021/01/31 11:08:25;;;;;;;12.40;11.30;;;;;;;-1.67;81.22;99545.84;4976122;28;20689;-77
2021/01/31 11:10:53;;;;;;;10.63;9.73;;;;;;;-1.59;80.86;99546.84;4977624;28;20228;-79
2021/01/31 11:13:18;;;;;;;12.50;11.40;;;;;;;-1.49;80.37;99546.13;4978391;28;20199;-78
2021/01/31 11:15:44;;;;;;;10.50;9.60;;;;;;;-1.46;80.05;99545.34;4977872;28;20270;-77
2021/01/31 11:18:10;;;;;;;9.97;9.07;;;;;;;-1.41;79.50;99538.56;4980538;28;20611;-78
2021/01/31 11:20:36;;;;;;;11.20;10.20;;;;;;;-1.41;79.44;99534.34;4978969;28;20239;-79
2021/01/31 11:23:02;;;;;;;10.67;9.57;;;;;;;-1.34;78.83;99529.31;4979109;28;20211;-79
2021/01/31 11:25:28;;;;;;;11.73;10.63;;;;;;;-1.22;82.77;99526.91;4978565;28;20208;-81
2021/01/31 11:27:54;;;;;;;10.53;9.60;;;;;;;-1.24;79.44;99524.31;4978558;28;20291;-79
2021/01/31 11:30:21;;;;;;;15.30;12.60;;;;;;;-1.13;83.68;99523.59;4978274;28;20230;-81
2021/01/31 11:32:47;;;;;;;11.93;10.73;;;;;;;-1.14;83.14;99525.31;4978584;28;20207;-81
2021/01/31 11:35:13;;;;;;;13.57;10.33;;;;;;;-1.17;80.49;99516.72;4978097;28;20212;-80
2021/01/31 11:37:39;;;;;;;12.40;11.20;;;;;;;-1.15;79.43;99513.38;4978620;28;20725;-81
2021/01/31 11:40:07;;;;;;;12.57;11.37;;;;;;;-1.23;79.82;99510.69;4979325;28;20756;-82
2021/01/31 11:42:33;;;;;;;12.40;11.23;;;;;;;-1.12;81.69;99515.94;4978333;28;20219;-81
2021/01/31 11:45:01;;;;;;;12.83;11.47;;;;;;;-1.03;82.32;99497.25;5004741;23;20239;-78
2021/01/31 11:47:27;;;;;;;12.20;11.20;;;;;;;-0.90;79.98;99498.28;5000925;28;20210;-78